Time;durP1;ratioP1;P1;durP2;ratioP2;P2;SDS_P1;SDS_P2;PMS_P1;PMS_P2;Temp;Humidity;BMP_temperature;BMP_pressure;BME280_temperature;BME280_humidity;BME280_pressure;Samples;Min_cycle;Max_cycle;Signal;HPM_P1;HPM_P2
2022/05/03 00:01:40;;;;;;;9.90;2.28;;;;;;;12.47;52.44;99230.19;4993545;28;20109;-87
2022/05/03 00:04:17;;;;;;;6.22;2.25;;;;;;;12.57;52.19;99234.69;5014492;28;20408;-89
2022/05/03 00:07:01;;;;;;;3.35;2.30;;;;;;;12.63;52.08;99220.06;5011622;28;20034;-87
2022/05/03 00:09:49;;;;;;;4.60;2.05;;;;;;;12.52;51.94;99213.94;5013821;28;20030;-87
2022/05/03 00:12:16;;;;;;;6.47;2.60;;;;;;;12.65;52.07;99226.78;4977840;28;20053;-87
2022/05/03 00:14:48;;;;;;;7.45;2.70;;;;;;;12.71;52.43;99217.53;4982041;28;20108;-84
2022/05/03 00:17:14;;;;;;;6.18;2.53;;;;;;;12.75;52.36;99220.47;4963794;28;20480;-86
2022/05/03 00:19:40;;;;;;;11.02;4.13;;;;;;;12.77;52.35;99212.88;4981305;28;20045;-85
2022/05/03 00:22:05;;;;;;;7.97;3.28;;;;;;;12.76;52.38;99219.34;4980543;28;20030;-86
2022/05/03 00:24:31;;;;;;;7.78;3.17;;;;;;;12.65;52.77;99213.25;4980676;28;20034;-86
2022/05/03 00:26:56;;;;;;;6.72;3.65;;;;;;;12.52;53.72;99209.34;4980517;28;20037;-86
2022/05/03 00:29:22;;;;;;;12.50;3.83;;;;;;;12.52;53.45;99214.75;4979750;28;20536;-86
2022/05/03 00:31:47;;;;;;;8.25;3.92;;;;;;;12.42;54.07;99224.84;4982987;28;20560;-86
2022/05/03 00:34:13;;;;;;;7.60;3.45;;;;;;;12.52;53.55;99222.06;4979927;28;20088;-87
2022/05/03 00:36:38;;;;;;;4.38;3.10;;;;;;;12.47;53.65;99219.38;4981349;28;20022;-86
2022/05/03 00:39:04;;;;;;;7.93;3.30;;;;;;;12.45;53.45;99210.75;4995909;28;20053;-85
2022/05/03 00:41:46;;;;;;;4.35;2.83;;;;;;;12.41;53.62;99218.66;4979738;28;20331;-85
2022/05/03 00:45:00;;;;;;;;;;;;;;;12.42;53.42;99222.94;4996591;28;20034;-86
2022/05/03 00:47:51;;;;;;;4.30;2.55;;;;;;;12.36;52.99;99213.28;4940187;29;19910;-85
2022/05/03 00:50:36;;;;;;;7.32;2.90;;;;;;;12.43;53.15;99221.88;5012231;28;20022;-86
2022/05/03 00:53:10;;;;;;;5.28;2.55;;;;;;;12.33;53.30;99206.56;5016650;28;20400;-85
2022/05/03 00:55:54;;;;;;;4.32;2.40;;;;;;;12.36;53.93;99209.78;4981141;28;20404;-85
2022/05/03 00:58:55;;;;;;;5.03;2.60;;;;;;;12.37;53.86;99216.78;5016855;28;20053;-86
2022/05/03 01:01:45;;;;;;;6.63;2.67;;;;;;;12.32;53.56;99209.53;4965234;28;20052;-86
2022/05/03 01:04:37;;;;;;;4.40;2.53;;;;;;;12.38;53.73;99215.69;5015869;28;20030;-86
2022/05/03 01:07:09;;;;;;;5.37;2.53;;;;;;;12.32;54.26;99209.53;5016261;28;20057;-86
2022/05/03 01:09:40;;;;;;;4.85;2.97;;;;;;;12.24;54.21;99205.56;4999125;28;20780;-85
2022/05/03 01:12:26;;;;;;;4.75;2.78;;;;;;;12.38;53.58;99194.91;4998055;28;20030;-86
2022/05/03 01:15:07;;;;;;;4.05;2.65;;;;;;;12.51;53.29;99210.44;4998017;28;20148;-86
2022/05/03 01:17:45;;;;;;;6.97;3.22;;;;;;;12.54;53.44;99214.47;5014629;28;20065;-86
2022/05/03 01:20:30;;;;;;;11.93;3.65;;;;;;;12.46;53.91;99196.97;4998995;28;20064;-86
2022/05/03 01:23:20;;;;;;;5.93;3.90;;;;;;;12.37;54.52;99214.06;5015182;28;20026;-86
2022/05/03 01:26:22;;;;;;;6.80;3.65;;;;;;;12.40;54.33;99210.81;5016447;28;20029;-86
2022/05/03 01:29:25;;;;;;;9.50;4.60;;;;;;;12.46;53.80;99210.47;5015887;28;20108;-86
2022/05/03 01:32:00;;;;;;;7.32;3.70;;;;;;;12.36;55.61;99197.06;5016341;28;20033;-87
2022/05/03 01:34:27;;;;;;;7.93;3.95;;;;;;;12.25;55.48;99196.38;4998113;28;20107;-86
2022/05/03 01:37:23;;;;;;;5.13;3.53;;;;;;;12.42;54.29;99197.84;5014716;28;20053;-86
2022/05/03 01:39:58;;;;;;;6.70;3.53;;;;;;;12.47;54.17;99189.69;5014799;28;20141;-86
2022/05/03 01:42:23;;;;;;;6.50;3.70;;;;;;;12.49;54.28;99201.00;5015321;28;20473;-86
2022/05/03 01:44:53;;;;;;;7.80;3.80;;;;;;;12.39;54.07;99185.72;5015134;28;20029;-86
2022/05/03 01:47:56;;;;;;;7.65;3.60;;;;;;;12.47;54.05;99200.47;4997869;28;20408;-86
2022/05/03 01:50:47;;;;;;;5.15;3.45;;;;;;;12.42;54.17;99193.25;5013774;28;20026;-86
2022/05/03 01:53:14;;;;;;;7.60;3.90;;;;;;;12.44;53.80;99195.66;5014223;28;20022;-86
2022/05/03 01:55:39;;;;;;;6.53;4.13;;;;;;;12.48;53.89;99202.09;5013918;28;20026;-86
2022/05/03 01:58:17;;;;;;;6.57;3.72;;;;;;;12.25;56.77;99204.47;5015734;28;20508;-86
2022/05/03 02:00:45;;;;;;;10.73;4.03;;;;;;;12.22;57.16;99196.13;5014997;28;20034;-86
2022/05/03 02:03:22;;;;;;;10.85;4.57;;;;;;;12.22;56.44;99188.03;5013328;28;20030;-86
2022/05/03 02:06:00;;;;;;;8.30;4.82;;;;;;;12.12;57.83;99199.75;5013544;28;20416;-86
2022/05/03 02:08:47;;;;;;;10.25;4.45;;;;;;;12.22;56.29;99198.81;4996020;28;20072;-86
2022/05/03 02:11:15;;;;;;;7.78;4.28;;;;;;;12.03;57.40;99213.00;5014106;28;20032;-86
2022/05/03 02:16:56;;;;;;;9.50;4.78;;;;;;;12.02;57.13;99208.72;5015925;28;20415;-86
2022/05/03 02:19:43;;;;;;;8.20;4.57;;;;;;;11.90;57.56;99195.56;5012720;28;20038;-87
2022/05/03 02:22:30;;;;;;;8.43;4.85;;;;;;;11.93;58.38;99210.38;5013870;28;20099;-86
2022/05/03 02:25:13;;;;;;;7.65;3.63;;;;;;;11.83;57.61;99197.75;5013335;28;20037;-86
2022/05/03 02:27:38;;;;;;;;;;;;;;;11.97;57.31;99213.34;5013739;28;20113;-87
2022/05/03 02:30:04;;;;;;;8.23;4.28;;;;;;;11.80;58.31;99197.50;4997707;28;19944;-86
2022/05/03 02:32:40;;;;;;;6.30;3.28;;;;;;;11.71;57.56;99200.00;5014035;28;20044;-86
2022/05/03 02:35:06;;;;;;;4.60;3.20;;;;;;;11.63;57.98;99203.28;4994939;28;20503;-86
2022/05/03 02:37:38;;;;;;;5.72;3.10;;;;;;;11.72;57.47;99209.69;4997358;28;20026;-86
2022/05/03 02:40:13;;;;;;;5.47;3.05;;;;;;;11.76;57.05;99202.66;5013374;28;20030;-86
2022/05/03 02:42:39;;;;;;;6.50;3.50;;;;;;;11.89;56.92;99207.47;4996807;28;20531;-85
2022/05/03 02:45:05;;;;;;;6.43;3.40;;;;;;;11.81;57.53;99197.25;4997217;28;20022;-86
2022/05/03 02:47:47;;;;;;;12.48;4.40;;;;;;;11.66;58.20;99208.13;5013317;28;20036;-86
2022/05/03 02:50:21;;;;;;;9.13;4.03;;;;;;;11.62;58.49;99194.41;5012959;28;20033;-86
2022/05/03 02:52:52;;;;;;;8.65;4.40;;;;;;;11.75;58.38;99211.06;5012403;28;20144;-86
2022/05/03 02:55:42;;;;;;;18.77;5.25;;;;;;;11.57;59.10;99202.50;5012859;28;20026;-86
2022/05/03 02:58:33;;;;;;;9.77;5.47;;;;;;;11.50;59.90;99205.53;4979903;28;20045;-86
2022/05/03 03:04:17;;;;;;;13.75;5.18;;;;;;;11.36;60.45;99209.09;5013919;28;20459;-85
2022/05/03 03:06:43;;;;;;;17.38;5.63;;;;;;;11.43;59.77;99199.63;5012632;28;20036;-86
2022/05/03 03:09:09;;;;;;;7.72;4.70;;;;;;;11.44;60.25;99203.94;4996267;28;20108;-85
2022/05/03 03:11:52;;;;;;;7.30;4.78;;;;;;;11.48;60.33;99202.28;5012973;28;20065;-85
2022/05/03 03:14:39;;;;;;;9.23;4.32;;;;;;;11.46;59.23;99211.75;5011469;28;20088;-85
2022/05/03 03:17:09;;;;;;;5.03;3.08;;;;;;;11.42;58.50;99203.41;4980480;28;20030;-85
2022/05/03 03:19:38;;;;;;;4.55;2.88;;;;;;;11.47;58.05;99211.44;5012686;28;20116;-85
2022/05/03 03:22:06;;;;;;;5.30;3.00;;;;;;;11.58;57.47;99208.69;5013692;28;20042;-86
2022/05/03 03:24:31;;;;;;;7.90;2.75;;;;;;;11.46;58.08;99215.25;5012784;28;20113;-86
2022/05/03 03:27:00;;;;;;;4.63;2.85;;;;;;;11.52;58.13;99216.03;4996776;28;20033;-86
2022/05/03 03:29:26;;;;;;;5.03;2.92;;;;;;;11.44;57.85;99211.22;4996478;28;20025;-86
2022/05/03 03:31:51;;;;;;;9.43;2.90;;;;;;;11.46;58.20;99214.44;4996491;28;20026;-86
2022/05/03 03:34:19;;;;;;;5.03;2.92;;;;;;;11.56;58.00;99218.97;4996350;28;20014;-86
2022/05/03 03:36:44;;;;;;;4.90;3.00;;;;;;;11.59;57.87;99219.22;4996788;28;20029;-86
2022/05/03 03:39:11;;;;;;;8.52;3.03;;;;;;;11.51;58.27;99223.28;4980478;28;20025;-88
2022/05/03 03:41:36;;;;;;;7.50;2.85;;;;;;;11.51;58.30;99227.88;5013363;28;20542;-87
2022/05/03 03:44:05;;;;;;;8.85;2.78;;;;;;;11.46;58.79;99223.34;4996208;28;20030;-87
2022/05/03 03:46:31;;;;;;;4.93;3.10;;;;;;;11.46;58.58;99217.16;4973851;28;20036;-87
2022/05/03 03:48:57;;;;;;;6.88;3.30;;;;;;;11.66;58.13;99224.28;5034308;28;20446;-87
2022/05/03 03:51:22;;;;;;;6.97;3.42;;;;;;;11.67;58.62;99229.41;4980656;28;20503;-87
2022/05/03 03:53:48;;;;;;;8.00;2.85;;;;;;;11.73;58.07;99224.81;4981215;28;20875;-87
2022/05/03 03:56:16;;;;;;;69.32;7.72;;;;;;;11.76;57.78;99224.22;4981140;28;20440;-93
2022/05/03 03:58:41;;;;;;;9.88;3.15;;;;;;;11.55;58.76;99223.56;4966081;28;20154;-87
2022/05/03 04:01:09;;;;;;;8.60;3.38;;;;;;;11.62;58.66;99228.63;4982538;28;20033;-86
2022/05/03 04:03:35;;;;;;;7.05;3.53;;;;;;;11.67;58.27;99231.31;4989779;28;20028;-87
2022/05/03 04:06:00;;;;;;;7.43;3.03;;;;;;;11.68;58.69;99232.91;4995404;28;20026;-87
2022/05/03 04:08:26;;;;;;;19.73;4.53;;;;;;;11.63;58.53;99219.47;5008409;28;20021;-88
2022/05/03 04:10:51;;;;;;;6.82;3.80;;;;;;;11.63;59.00;99228.38;5001270;28;20026;-93
2022/05/03 04:13:17;;;;;;;8.27;3.45;;;;;;;11.63;59.00;99219.47;5004087;28;20026;-94
2022/05/03 04:15:42;;;;;;;5.90;3.92;;;;;;;11.68;58.86;99230.22;5020209;28;20235;-93
2022/05/03 04:18:08;;;;;;;13.27;4.70;;;;;;;11.76;58.96;99242.31;5021231;28;20013;-94
2022/05/03 04:20:34;;;;;;;7.70;3.30;;;;;;;11.77;58.50;99214.28;4988897;28;20030;-93
2022/05/03 04:23:00;;;;;;;6.90;3.30;;;;;;;11.83;57.92;99219.34;5004466;28;20485;-94
2022/05/03 04:25:25;;;;;;;7.70;3.03;;;;;;;11.86;57.75;99226.06;5003827;28;20037;-93
2022/05/03 04:27:50;;;;;;;6.68;3.35;;;;;;;11.83;57.65;99216.66;5005028;28;20010;-92
2022/05/03 04:30:16;;;;;;;677.10;53.65;;;;;;;11.71;58.24;99219.69;5021539;28;20045;-92
2022/05/03 04:32:43;;;;;;;19.38;4.57;;;;;;;11.62;58.31;99226.75;4982412;28;20041;-93
2022/05/03 04:35:09;;;;;;;15.68;4.10;;;;;;;11.85;57.57;99236.06;4953380;28;20054;-93
2022/05/03 04:37:35;;;;;;;13.65;4.50;;;;;;;11.88;57.20;99234.69;4969286;28;20511;-93
2022/05/03 04:40:01;;;;;;;14.77;3.28;;;;;;;11.68;57.83;99238.31;4969415;28;20030;-95
2022/05/03 04:42:27;;;;;;;14.73;4.07;;;;;;;11.69;58.06;99221.84;4984382;28;20027;-93
2022/05/03 04:44:52;;;;;;;12.00;4.45;;;;;;;11.77;58.38;99233.94;4970114;28;20499;-94
2022/05/03 04:47:18;;;;;;;20.42;5.43;;;;;;;11.61;59.10;99229.72;4972114;28;20113;-91
2022/05/03 04:49:47;;;;;;;6.57;3.60;;;;;;;11.62;58.75;99217.84;4974238;28;20026;-93
2022/05/03 04:52:12;;;;;;;8.77;3.08;;;;;;;11.79;57.89;99239.88;4972957;28;20030;-92
2022/05/03 04:54:38;;;;;;;10.63;3.97;;;;;;;11.71;57.94;99233.16;4954413;28;20033;-92
2022/05/03 04:57:05;;;;;;;7.13;4.32;;;;;;;11.80;57.64;99227.19;4967020;28;20046;-95
2022/05/03 04:59:40;;;;;;;17.08;8.43;;;;;;;12.00;57.35;99245.16;4967940;28;20077;-96
2022/05/03 05:02:05;;;;;;;10.77;4.63;;;;;;;11.99;55.93;99227.34;4974408;28;20022;-94
2022/05/03 05:04:31;;;;;;;6.82;3.13;;;;;;;11.75;56.28;99214.53;4968086;28;20026;-94
2022/05/03 05:06:58;;;;;;;13.52;3.00;;;;;;;11.95;55.74;99242.50;4967950;28;20404;-92
2022/05/03 05:09:24;;;;;;;7.38;3.08;;;;;;;11.99;56.12;99236.25;4970890;28;20027;-93
2022/05/03 05:11:49;;;;;;;9.38;3.15;;;;;;;12.26;55.03;99234.97;5001336;28;20036;-91
2022/05/03 05:14:20;;;;;;;7.90;4.35;;;;;;;12.20;55.25;99218.03;4992080;28;20041;-94
2022/05/03 05:16:58;;;;;;;9.73;3.72;;;;;;;12.23;54.82;99212.03;4989195;28;20030;-92
2022/05/03 05:19:24;;;;;;;14.70;3.45;;;;;;;12.10;54.89;99228.91;4987277;28;20030;-92
2022/05/03 05:21:50;;;;;;;8.30;3.00;;;;;;;12.24;54.34;99218.25;5006811;28;20033;-94
2022/05/03 05:24:16;;;;;;;4.75;2.67;;;;;;;12.52;53.49;99228.25;5005727;28;20031;-93
2022/05/03 05:26:41;;;;;;;8.25;3.50;;;;;;;12.60;53.35;99210.63;4989877;28;20026;-95
2022/05/03 05:29:09;;;;;;;13.88;5.15;;;;;;;12.61;54.24;99222.22;5006158;28;20125;-93
2022/05/03 05:31:48;;;;;;;6.95;3.38;;;;;;;12.71;54.41;99251.84;5004448;28;20029;-93
2022/05/03 05:34:17;;;;;;;13.02;4.47;;;;;;;12.71;55.03;99243.75;4986232;28;20030;-93
2022/05/03 05:36:44;;;;;;;10.65;3.50;;;;;;;12.99;53.65;99254.78;5007532;28;20034;-93
2022/05/03 05:39:15;;;;;;;9.65;3.47;;;;;;;12.96;52.74;99258.09;5000195;28;20052;-92
2022/05/03 05:41:41;;;;;;;10.43;4.22;;;;;;;12.97;53.25;99251.56;5021806;28;20484;-91
2022/05/03 05:44:10;;;;;;;10.07;3.95;;;;;;;12.72;53.58;99242.63;5000998;28;20032;-93
2022/05/03 05:46:39;;;;;;;11.88;3.40;;;;;;;12.84;53.26;99234.94;5007204;28;20073;-95
2022/05/03 05:49:39;;;;;;;10.52;3.17;;;;;;;12.85;53.43;99236.56;4998512;28;20031;-94
2022/05/03 05:54:50;;;;;;;18.58;5.97;;;;;;;13.10;52.41;99249.00;5011395;28;20049;-94
2022/05/03 05:57:16;;;;;;;23.67;5.72;;;;;;;13.10;52.41;99238.19;5023731;28;20046;-95
2022/05/03 05:59:41;;;;;;;22.60;13.45;;;;;;;13.11;52.38;99233.56;4989051;28;20042;-89
2022/05/03 06:02:10;;;;;;;8.13;3.25;;;;;;;13.17;52.04;99240.53;4996701;28;20389;-89
2022/05/03 06:04:37;;;;;;;20.52;4.85;;;;;;;13.24;52.05;99253.69;4990302;28;20051;-89
2022/05/03 06:07:02;;;;;;;12.02;4.20;;;;;;;13.25;52.04;99255.31;4988291;28;20595;-91
2022/05/03 06:09:28;;;;;;;15.55;4.05;;;;;;;13.11;52.24;99244.38;4999070;28;20018;-88
2022/05/03 06:11:53;;;;;;;10.13;4.88;;;;;;;13.28;53.04;99266.38;4985041;28;20034;-87
2022/05/03 06:14:19;;;;;;;15.60;3.75;;;;;;;13.33;51.84;99265.53;4971921;28;20018;-95
2022/05/03 06:16:54;;;;;;;8.73;3.00;;;;;;;13.34;52.26;99259.00;4971144;28;20030;-93
2022/05/03 06:19:22;;;;;;;22.20;5.05;;;;;;;13.29;53.08;99259.88;4975536;28;20099;-94
2022/05/03 06:21:50;;;;;;;43.55;5.75;;;;;;;13.42;53.00;99271.88;4991915;28;20079;-94
2022/05/03 06:24:19;;;;;;;16.48;3.38;;;;;;;13.41;51.85;99274.91;4990741;28;20025;-95
2022/05/03 06:26:45;;;;;;;66.07;6.38;;;;;;;13.33;51.52;99260.13;5007183;28;20041;-93
2022/05/03 06:29:11;;;;;;;218.90;11.43;;;;;;;13.41;50.58;99264.88;4989167;28;20030;-91
2022/05/03 06:31:37;;;;;;;255.13;15.30;;;;;;;13.42;49.56;99255.66;4960934;28;20010;-94
2022/05/03 06:34:04;;;;;;;87.22;6.63;;;;;;;13.50;49.03;99278.56;5001030;28;20040;-95
2022/05/03 06:36:35;;;;;;;15.52;3.60;;;;;;;13.41;50.30;99251.38;5009866;28;20132;-92
2022/05/03 06:39:03;;;;;;;11.77;5.05;;;;;;;13.57;50.81;99281.69;5005499;28;20006;-95
2022/05/03 06:41:29;;;;;;;5.03;2.90;;;;;;;13.69;50.32;99276.66;5006430;28;20072;-95
2022/05/03 06:43:57;;;;;;;13.25;3.40;;;;;;;13.83;49.67;99284.88;5008275;28;20025;-94
2022/05/03 06:46:23;;;;;;;18.15;3.78;;;;;;;13.85;49.69;99276.47;5007552;28;20030;-95
2022/05/03 06:48:51;;;;;;;7.15;3.70;;;;;;;13.71;49.35;99269.06;5006938;28;20029;-94
2022/05/03 06:51:19;;;;;;;9.38;3.45;;;;;;;13.88;49.34;99274.00;5010127;28;20046;-94
2022/05/03 06:53:45;;;;;;;21.65;3.38;;;;;;;14.05;49.40;99278.91;5009574;28;20132;-93
2022/05/03 06:56:12;;;;;;;9.30;3.05;;;;;;;14.06;49.86;99280.50;5006198;28;20030;-94
2022/05/03 06:58:39;;;;;;;13.73;3.53;;;;;;;14.22;49.95;99272.16;5024407;28;20508;-94
2022/05/03 07:01:17;;;;;;;8.45;3.03;;;;;;;14.38;49.67;99276.22;5022850;28;20037;-94
2022/05/03 07:03:43;;;;;;;14.38;4.10;;;;;;;14.50;49.03;99275.75;5008842;28;20057;-91
2022/05/03 07:06:09;;;;;;;8.88;3.08;;;;;;;14.64;48.35;99271.19;5017395;28;20025;-89
2022/05/03 07:08:35;;;;;;;5.47;3.00;;;;;;;14.54;47.89;99271.34;5009646;28;20026;-87
2022/05/03 07:11:00;;;;;;;11.43;3.63;;;;;;;14.65;47.50;99285.53;4969548;28;20038;-88
2022/05/03 07:13:29;;;;;;;6.78;3.30;;;;;;;14.51;46.47;99259.19;4997626;28;20046;-90
2022/05/03 07:15:56;;;;;;;20.40;7.25;;;;;;;14.48;45.67;99261.69;4986719;28;20034;-89
2022/05/03 07:23:51;;;;;;;4.97;2.45;;;;;;;14.94;45.64;99296.13;4994287;28;20040;-90
2022/05/03 07:26:18;;;;;;;16.55;3.35;;;;;;;14.92;46.13;99282.91;4992143;28;20404;-95
2022/05/03 07:28:49;;;;;;;4.40;2.80;;;;;;;15.04;45.58;99295.16;4983304;28;20032;-88
2022/05/03 07:31:18;;;;;;;10.73;3.65;;;;;;;15.06;45.15;99265.81;5007554;28;20025;-90
2022/05/03 07:33:49;;;;;;;36.20;23.60;;;;;;;15.11;45.27;99265.75;4997384;28;20021;-93
2022/05/03 07:36:15;;;;;;;35.10;26.87;;;;;;;15.43;45.40;99286.50;4973765;28;20040;-91
2022/05/03 07:38:46;;;;;;;9.55;3.30;;;;;;;15.52;45.16;99276.56;5000070;28;20272;-93
2022/05/03 07:41:14;;;;;;;3.05;2.33;;;;;;;15.71;44.57;99286.50;5019654;28;20030;-88
2022/05/03 07:44:09;;;;;;;5.60;2.28;;;;;;;15.68;44.47;99300.66;5002905;28;20022;-92
2022/05/03 07:47:05;;;;;;;7.13;2.47;;;;;;;15.87;44.29;99303.28;5003654;28;20035;-91
2022/05/03 07:49:33;;;;;;;6.13;2.67;;;;;;;15.87;44.12;99286.97;5008234;28;20068;-90
2022/05/03 07:51:59;;;;;;;7.57;3.33;;;;;;;15.99;44.13;99276.38;4988320;28;20025;-87
2022/05/03 07:54:24;;;;;;;5.35;2.83;;;;;;;16.09;43.59;99283.50;4981687;28;20385;-91
2022/05/03 07:56:50;;;;;;;8.90;3.00;;;;;;;16.23;43.56;99308.72;4986459;28;20149;-88
2022/05/03 07:59:15;;;;;;;6.70;3.15;;;;;;;16.06;44.34;99282.22;4987994;28;20061;-89
2022/05/03 08:01:46;;;;;;;9.48;4.18;;;;;;;15.99;44.95;99273.66;4972206;28;20105;-90
2022/05/03 08:04:12;;;;;;;8.38;4.15;;;;;;;16.06;44.64;99286.81;4990976;28;20477;-87
2022/05/03 08:06:50;;;;;;;9.25;4.10;;;;;;;16.25;43.95;99279.31;5018851;28;20022;-90
2022/05/03 08:09:16;;;;;;;7.82;3.17;;;;;;;16.51;42.82;99298.50;4992844;28;20029;-90
2022/05/03 08:11:42;;;;;;;7.10;2.55;;;;;;;16.38;42.86;99285.00;4982102;28;20026;-89
2022/05/03 08:14:15;;;;;;;3.88;2.13;;;;;;;16.55;42.17;99298.69;5015712;28;20029;-90
2022/05/03 08:16:41;;;;;;;30.38;3.00;;;;;;;16.67;42.12;99320.69;4976295;28;20038;-87
2022/05/03 08:19:07;;;;;;;15.88;2.88;;;;;;;16.64;42.26;99315.06;4988879;28;20448;-92
2022/05/03 08:21:35;;;;;;;4.25;2.17;;;;;;;16.30;42.85;99302.84;4989277;28;20111;-90
2022/05/03 08:24:08;;;;;;;5.53;2.00;;;;;;;16.02;43.52;99288.53;4980070;28;20014;-95
2022/05/03 08:26:34;;;;;;;10.48;4.28;;;;;;;16.15;43.11;99306.72;4991341;28;20204;-96
2022/05/03 08:29:03;;;;;;;4.50;2.50;;;;;;;15.78;43.59;99302.41;4967753;28;20049;-89
2022/05/03 08:31:31;;;;;;;9.10;2.67;;;;;;;15.85;43.80;99328.00;4979809;28;20022;-91
2022/05/03 08:34:02;;;;;;;7.45;2.80;;;;;;;15.74;43.65;99310.34;4967934;28;20050;-89
2022/05/03 08:36:29;;;;;;;6.55;3.25;;;;;;;16.02;42.88;99299.41;5011544;28;20018;-88
2022/05/03 08:42:21;;;;;;;5.95;2.20;;;;;;;16.06;42.28;99331.09;4992906;28;20037;-89
2022/05/03 08:44:29;;;;;;;13.88;3.75;;;;;;;16.14;41.97;99311.38;4998851;28;20572;-90
2022/05/03 08:46:56;;;;;;;7.47;3.53;;;;;;;16.35;41.73;99333.44;4987638;28;20058;-91
2022/05/03 08:49:23;;;;;;;5.78;2.70;;;;;;;16.33;41.94;99337.53;4994124;28;20033;-90
2022/05/03 08:52:16;;;;;;;9.90;4.45;;;;;;;16.43;41.51;99329.16;4989374;28;20037;-90
2022/05/03 08:54:41;;;;;;;13.73;8.82;;;;;;;16.28;41.80;99319.44;5002815;28;20096;-88
2022/05/03 08:57:07;;;;;;;6.13;2.45;;;;;;;16.40;41.53;99328.97;4976476;28;20050;-90
2022/05/03 08:59:34;;;;;;;4.25;2.10;;;;;;;16.15;42.05;99312.97;5001737;28;20092;-88
2022/05/03 09:01:59;;;;;;;5.38;2.72;;;;;;;16.04;43.05;99314.31;4998091;28;20048;-89
2022/05/03 09:04:25;;;;;;;6.80;2.90;;;;;;;16.23;42.89;99335.06;5006310;28;20026;-91
2022/05/03 09:06:51;;;;;;;6.95;2.42;;;;;;;16.06;43.07;99312.09;4999190;28;20026;-89
2022/05/03 09:09:20;;;;;;;7.38;2.70;;;;;;;16.15;43.44;99340.13;5000922;28;20022;-92
2022/05/03 09:11:48;;;;;;;7.45;3.88;;;;;;;16.09;43.62;99335.13;4992169;28;20103;-93
2022/05/03 09:14:33;;;;;;;95.57;71.00;;;;;;;15.85;44.85;99319.84;4995837;28;20041;-94
2022/05/03 09:17:35;;;;;;;4.30;2.25;;;;;;;15.66;45.16;99335.44;4993158;28;20064;-93
2022/05/03 09:23:46;;;;;;;5.57;2.55;;;;;;;15.72;45.34;99353.28;4971770;28;20397;-91
2022/05/03 09:25:36;;;;;;;14.02;3.22;;;;;;;15.70;45.46;99329.09;5006478;28;20495;-89
2022/05/03 09:28:08;;;;;;;10.73;2.63;;;;;;;15.60;45.59;99320.38;5005951;28;20412;-89
2022/05/03 09:30:44;;;;;;;4.05;2.63;;;;;;;15.81;44.91;99331.63;5020024;28;20128;-88
2022/05/03 09:33:30;;;;;;;7.45;2.70;;;;;;;15.69;44.81;99334.88;5003907;28;20050;-87
2022/05/03 09:35:56;;;;;;;6.15;2.42;;;;;;;15.61;44.92;99316.56;5017270;28;20049;-86
2022/05/03 09:38:21;;;;;;;13.10;2.90;;;;;;;15.68;45.66;99319.66;4983747;28;20040;-88
2022/05/03 09:40:47;;;;;;;22.92;5.05;;;;;;;15.61;46.03;99322.00;5000133;28;20030;-89
2022/05/03 09:43:18;;;;;;;5.45;2.40;;;;;;;15.83;45.89;99329.44;5027123;28;20026;-94
2022/05/03 09:45:45;;;;;;;6.80;3.42;;;;;;;15.70;46.40;99328.31;4978433;28;20034;-90
2022/05/03 09:48:11;;;;;;;10.93;3.70;;;;;;;15.74;45.79;99329.34;4992043;28;20044;-94
2022/05/03 09:50:45;;;;;;;12.60;3.10;;;;;;;15.73;45.64;99323.13;5000492;28;20113;-95
2022/05/03 09:53:39;;;;;;;7.22;3.00;;;;;;;15.78;45.93;99337.69;4991995;28;20030;-94
2022/05/03 09:56:16;;;;;;;8.60;2.88;;;;;;;15.81;45.91;99323.50;4967680;28;20039;-92
2022/05/03 09:58:44;;;;;;;10.05;2.75;;;;;;;15.82;47.17;99317.78;4973008;28;20129;-93
2022/05/03 10:01:10;;;;;;;6.40;3.30;;;;;;;15.89;46.82;99303.78;4990360;28;20071;-96
2022/05/03 10:03:36;;;;;;;6.88;3.33;;;;;;;15.97;46.75;99330.19;4972874;28;20062;-95
2022/05/03 10:06:04;;;;;;;5.95;2.33;;;;;;;15.90;46.45;99327.13;4976096;28;20507;-94
2022/05/03 10:08:30;;;;;;;9.07;3.10;;;;;;;15.85;46.63;99325.28;4961502;28;20029;-94
2022/05/03 10:11:01;;;;;;;7.25;2.90;;;;;;;15.82;46.16;99309.63;5228660;23;20110;-93
2022/05/03 10:13:27;;;;;;;6.15;3.40;;;;;;;15.92;48.64;99327.63;4969200;28;20047;-94
2022/05/03 10:21:32;;;;;;;6.50;2.90;;;;;;;15.87;50.67;99327.72;5033682;23;20076;-93
2022/05/03 10:24:04;;;;;;;7.75;3.72;;;;;;;15.88;52.92;99324.69;5000802;28;20022;-93
2022/05/03 10:27:02;;;;;;;12.32;4.72;;;;;;;15.61;54.18;99338.28;5007844;28;20045;-92
2022/05/03 10:29:33;;;;;;;8.30;3.35;;;;;;;15.45;55.69;99327.72;5023830;28;20036;-93
2022/05/03 10:32:08;;;;;;;5.10;2.83;;;;;;;15.20;56.47;99339.88;4996776;28;20499;-94
2022/05/03 10:34:49;;;;;;;6.22;2.90;;;;;;;14.62;58.71;99311.34;5004188;28;20477;-94
2022/05/03 10:37:33;;;;;;;9.77;3.63;;;;;;;14.71;56.25;99352.09;5024709;28;20136;-91
2022/05/03 10:40:01;;;;;;;7.90;3.53;;;;;;;14.37;54.26;99345.03;5006231;28;20732;-92
2022/05/03 10:42:27;;;;;;;4.78;2.92;;;;;;;14.28;53.93;99350.31;4972913;28;20061;-92
2022/05/03 10:45:01;;;;;;;6.20;3.47;;;;;;;14.35;57.37;99353.44;5019297;28;20018;-91
2022/05/03 10:47:53;;;;;;;6.70;2.85;;;;;;;14.42;55.67;99365.81;5021668;28;20512;-93
2022/05/03 10:50:34;;;;;;;;;;;;;;;14.44;57.43;99371.75;5017222;28;20056;-95
2022/05/03 10:53:01;;;;;;;5.85;3.58;;;;;;;14.30;60.18;99361.66;5023459;28;19956;-94
2022/05/03 10:55:38;;;;;;;4.88;3.17;;;;;;;14.24;57.45;99348.50;5003266;28;20121;-96
2022/05/03 10:58:26;;;;;;;3.80;2.55;;;;;;;14.51;56.15;99367.56;4987085;28;20045;-93
2022/05/03 11:01:08;;;;;;;6.10;2.90;;;;;;;14.48;55.78;99368.13;4991365;28;20061;-93
2022/05/03 11:03:36;;;;;;;6.82;3.88;;;;;;;14.45;59.61;99349.78;5004707;28;20030;-93
2022/05/03 11:06:18;;;;;;;7.63;4.65;;;;;;;14.83;59.27;99371.41;4983772;28;20044;-93
2022/05/03 11:11:42;;;;;;;9.73;4.78;;;;;;;14.50;58.67;99373.28;5008350;28;20045;-91
2022/05/03 11:14:32;;;;;;;;;;;;;;;;;;;;;
2022/05/03 11:17:14;;;;;;;8.27;3.28;;;;;;;14.51;55.84;99354.03;5026990;28;20057;-89
2022/05/03 11:19:51;;;;;;;3.37;2.60;;;;;;;14.70;52.05;99359.44;4988810;28;20022;-92
2022/05/03 11:22:21;;;;;;;5.63;3.20;;;;;;;14.56;52.80;99361.28;5007168;28;20058;-91
2022/05/03 11:24:52;;;;;;;5.75;2.70;;;;;;;14.40;53.58;99340.91;5005967;28;20034;-90
2022/05/03 11:27:24;;;;;;;4.55;3.20;;;;;;;14.72;55.02;99368.09;5007574;28;20033;-93
2022/05/03 11:30:00;;;;;;;4.38;3.08;;;;;;;14.67;52.76;99359.22;4986181;28;20026;-90
2022/05/03 11:32:37;;;;;;;4.22;2.90;;;;;;;14.89;53.87;99364.00;4981928;28;20105;-91
2022/05/03 11:35:13;;;;;;;9.20;3.55;;;;;;;14.88;51.92;99378.66;4995155;28;20052;-90
2022/05/03 11:37:54;;;;;;;7.05;3.35;;;;;;;14.70;53.12;99383.84;5016495;28;20030;-91
2022/05/03 11:40:25;;;;;;;6.20;3.92;;;;;;;14.72;53.55;99383.53;4994877;28;20037;-91
2022/05/03 11:42:53;;;;;;;6.38;2.92;;;;;;;14.68;54.50;99391.44;4996490;28;20026;-88
2022/05/03 11:45:22;;;;;;;3.92;2.83;;;;;;;14.56;54.98;99382.97;4998365;28;20100;-90
2022/05/03 11:47:49;;;;;;;4.07;2.88;;;;;;;14.45;55.62;99411.28;4989741;28;20033;-90
2022/05/03 11:56:01;;;;;;;5.25;3.00;;;;;;;13.70;60.55;99377.63;4994593;28;20058;-90
2022/05/03 11:58:30;;;;;;;4.80;3.10;;;;;;;13.73;60.30;99393.25;4996921;28;20158;-92
2022/05/03 12:00:56;;;;;;;4.45;3.17;;;;;;;13.60;60.29;99399.38;4979299;28;20035;-90
2022/05/03 12:03:21;;;;;;;4.43;3.17;;;;;;;13.89;59.46;99394.69;4980120;28;20062;-86
2022/05/03 12:06:02;;;;;;;5.55;2.75;;;;;;;13.77;59.39;99397.00;4978408;28;20026;-89
2022/05/03 12:08:29;;;;;;;4.50;3.15;;;;;;;13.84;59.17;99397.47;4980880;28;20432;-89
2022/05/03 12:10:56;;;;;;;4.43;3.10;;;;;;;13.78;61.30;99406.75;4982069;28;20033;-89
2022/05/03 12:13:22;;;;;;;4.20;3.03;;;;;;;13.73;59.56;99412.22;4981966;28;20022;-89
2022/05/03 12:15:57;;;;;;;7.32;4.30;;;;;;;13.69;61.00;99406.56;5005061;28;20033;-90
2022/05/03 12:18:40;;;;;;;4.68;3.10;;;;;;;13.37;60.71;99374.72;5011739;28;20484;-89
2022/05/03 12:21:13;;;;;;;9.25;5.13;;;;;;;13.60;63.09;99408.28;4999095;28;20050;-89
2022/05/03 12:23:46;;;;;;;5.72;3.20;;;;;;;13.62;60.45;99391.78;5012171;28;20041;-96
2022/05/03 12:26:16;;;;;;;8.48;5.15;;;;;;;13.54;61.63;99404.03;5000205;28;20050;-91
2022/05/03 12:28:52;;;;;;;6.43;3.60;;;;;;;13.70;62.91;99415.50;4990324;28;20515;-91
2022/05/03 12:31:28;;;;;;;4.63;3.53;;;;;;;13.65;62.69;99418.25;5027947;28;20044;-89